Weather reports worldwide

Advertisment
Bala, United Kingdom (3409): temperature & dewpoint: 09.11.2018 05:00:00 - 15.11.2018 05:00:00 (GMT)Bala, United Kingdom (3409): temperature -20cm & temperature -100cm: 09.11.2018 05:00:00 - 15.11.2018 05:00:00 (GMT)Bala, United Kingdom (3409): wind speed & gusts: 09.11.2018 05:00:00 - 15.11.2018 05:00:00 (GMT)Bala, United Kingdom (3409): wind direction: 09.11.2018 05:00:00 - 15.11.2018 05:00:00 (GMT)Bala, United Kingdom (3409): reduced air pressure: 09.11.2018 05:00:00 - 15.11.2018 05:00:00 (GMT)Bala, United Kingdom (3409): sunshine duration: 09.11.2018 05:00:00 - 15.11.2018 05:00:00 (GMT)Bala, United Kingdom (3409): precipitation: 09.11.2018 05:00:00 - 15.11.2018 05:00:00 (GMT)
Date & Time tt [°C] td [°C] tt -20cm [°C] tt -100cm [°C] ff [km/h] ff [kn] fx [km/h] fx [kn] dd ppp [hPa] sd [min] rr [mm]
15.11.2018 05:00:00 - - - - - - - - - - - -
15.11.2018 04:00:00 3,7 2,8 - - 2 1 - - NNE 1017,7 0 0,0
15.11.2018 03:00:00 3,9 2,6 - - 2 1 - - ENE 1017,6 0 0,0
15.11.2018 02:00:00 3,8 2,3 - - 2 1 - - E 1017,8 0 0,0
15.11.2018 01:00:00 5,3 3,5 - - 5 3 - - N 1017,6 0 0,0
15.11.2018 00:00:00 6,6 3,6 - - 5 3 - - ENE 1017,7 - 0,0
14.11.2018 23:00:00 9,2 4,0 - - 8 4 - - S 1017,4 0 0,0
14.11.2018 22:00:00 9,6 4,2 - - 9 5 - - SSW 1017,4 0 0,0
14.11.2018 21:00:00 9,2 4,8 - - 11 6 - - SSW 1017,3 0 0,0
14.11.2018 20:00:00 10,4 5,3 - - 21 11 - - S 1016,9 0 0,0
14.11.2018 19:00:00 10,5 5,6 - - 9 5 - - SSW 1017,0 0 0,0
14.11.2018 18:00:00 11,2 6,4 - - 11 6 - - WSW 1016,7 0 0,0
14.11.2018 17:00:00 11,8 6,7 - - 5 3 - - W 1016,5 0 0,0
14.11.2018 16:00:00 12,3 7,3 - - 8 4 - - WNW 1016,4 0 0,0
14.11.2018 15:00:00 12,6 6,8 - - 16 9 - - SSW 1016,1 0 0,0
14.11.2018 14:00:00 12,7 7,0 - - 18 10 - - SSW 1016,3 0 0,0
14.11.2018 13:00:00 12,6 7,0 - - 24 13 - - SW 1016,1 0 0,0
14.11.2018 12:00:00 12,5 7,3 - - 24 13 48 26 SSW 1016,2 0 0,0
14.11.2018 11:00:00 12,2 8,2 - - 26 14 52 28 SSW 1016,3 0 0,0
14.11.2018 10:00:00 11,8 8,8 - - 22 12 - - SSW 1016,6 0 0,0
14.11.2018 09:00:00 12,2 9,1 9,5 10,0 21 11 - - SW 1016,1 0 0,0
14.11.2018 08:00:00 12,1 9,2 - - 16 9 - - SW 1015,9 0 0,0
14.11.2018 07:00:00 11,6 8,9 - - 21 11 48 26 SW 1015,5 0 0,0
14.11.2018 06:00:00 11,6 9,0 - - 24 13 - - SW 1015,2 0 0,0
14.11.2018 05:00:00 11,7 8,7 - - 28 15 52 28 SW 1015,2 0 0,4
14.11.2018 04:00:00 10,8 8,4 - - 21 11 - - SW 1015,6 0 0,4
14.11.2018 03:00:00 10,6 8,2 - - 26 14 - - SW 1016,1 0 0,2
14.11.2018 02:00:00 10,7 7,7 - - 31 17 59 32 SW 1016,5 0 0,0
14.11.2018 01:00:00 11,6 6,1 - - 31 17 59 32 SW 1016,6 0 0,0
14.11.2018 00:00:00 12,0 5,7 - - 29 16 50 27 SW 1017,5 - 0,0
13.11.2018 23:00:00 12,1 6,5 - - 22 12 - - SSW 1017,8 0 0,0
13.11.2018 22:00:00 11,7 6,5 - - 24 13 - - SW 1017,9 0 0,0
13.11.2018 21:00:00 11,6 7,0 - - 26 14 46 25 SW 1018,6 0 0,0
13.11.2018 20:00:00 11,5 6,7 - - 28 15 - - SW 1018,8 0 0,0
13.11.2018 19:00:00 11,1 6,6 - - 28 15 - - SW 1019,2 0 0,0
13.11.2018 18:00:00 11,1 6,8 - - 22 12 - - SW 1019,5 0 0,0
13.11.2018 17:00:00 10,9 6,0 - - 24 13 - - SW 1019,4 0 0,0
13.11.2018 16:00:00 10,8 7,0 - - 18 10 - - WSW 1019,3 0 0,0
13.11.2018 15:00:00 11,0 6,5 - - 21 11 - - SW 1019,0 6 0,0
13.11.2018 14:00:00 10,7 7,1 - - 18 10 - - SW 1018,8 18 0,4
13.11.2018 13:00:00 9,7 7,4 - - 22 12 - - SW 1018,9 0 0,0
13.11.2018 12:00:00 10,5 5,8 - - 16 9 - - WSW 1018,5 6 0,0
13.11.2018 11:00:00 10,2 6,2 - - 15 8 - - WSW 1018,2 6 0,0
13.11.2018 10:00:00 9,3 6,8 - - 13 7 - - WSW 1017,6 0 0,0
13.11.2018 09:00:00 9,2 5,8 9,4 10,2 16 9 - - WSW 1016,6 6 0,0
13.11.2018 08:00:00 8,9 6,1 - - 16 9 - - W 1015,3 0 0,0
13.11.2018 07:00:00 9,1 6,0 - - 24 13 - - WSW 1014,0 0 0,0
13.11.2018 06:00:00 9,0 5,9 - - 15 8 - - WSW 1013,0 0 0,0
13.11.2018 05:00:00 9,0 6,2 - - 21 11 - - WSW 1011,8 0 0,0
13.11.2018 04:00:00 9,1 6,2 - - 21 11 46 25 WSW 1010,6 0 0,6
13.11.2018 03:00:00 8,5 6,6 - - 18 10 - - WSW 1009,6 0 1,4
13.11.2018 02:00:00 8,6 6,3 - - 13 7 - - W 1008,7 0 0,6
13.11.2018 01:00:00 8,5 6,1 - - 24 13 - - WSW 1007,4 0 0,8
13.11.2018 00:00:00 8,6 6,6 - - 24 13 50 27 SW 1006,6 - 0,8
12.11.2018 23:00:00 8,1 6,5 - - 18 10 - - WSW 1005,9 0 1,6
12.11.2018 22:00:00 6,4 4,3 - - 18 10 - - W 1006,2 0 3,6
12.11.2018 21:00:00 8,4 5,8 - - 22 12 - - SW 1005,2 0 0,8
12.11.2018 20:00:00 8,0 5,2 - - 16 9 54 29 SW 1004,9 0 2,0
12.11.2018 19:00:00 9,9 5,0 - - 21 11 50 27 SW 1004,5 0 0,0
12.11.2018 18:00:00 9,6 5,5 - - 21 11 50 27 SW 1004,6 0 1,2
12.11.2018 17:00:00 10,6 5,2 - - 18 10 - - SSW 1003,8 0 0,0
12.11.2018 16:00:00 10,3 5,2 - - 16 9 - - SSW 1003,5 0 0,2
12.11.2018 15:00:00 10,8 5,5 - - 21 11 48 26 SW 1003,5 18 0,2
12.11.2018 14:00:00 10,0 7,1 - - 16 9 - - SW 1003,2 0 1,8
12.11.2018 13:00:00 10,5 6,6 - - 18 10 48 26 SW 1003,0 6 0,4
12.11.2018 12:00:00 11,2 5,4 - - 22 12 46 25 SW 1003,4 12 0,8
12.11.2018 11:00:00 10,4 6,7 - - 15 8 - - SSW 1003,3 0 0,0
12.11.2018 10:00:00 11,1 5,5 - - 18 10 - - SSW 1003,0 0 0,0
12.11.2018 09:00:00 10,7 5,9 9,4 10,2 16 9 - - SSW 1002,9 0 0,0
12.11.2018 08:00:00 10,1 6,3 - - 13 7 - - S 1002,5 0 0,0
12.11.2018 07:00:00 9,7 6,5 - - 16 9 - - S 1002,1 0 0,6
12.11.2018 06:00:00 10,3 6,4 - - 15 8 - - S 1001,9 0 0,0
12.11.2018 05:00:00 9,8 6,4 - - 13 7 - - SSW 1001,6 0 0,0
12.11.2018 04:00:00 10,1 5,9 - - 13 7 - - SSW 1001,2 0 0,2
12.11.2018 03:00:00 10,0 6,4 - - 18 10 - - SW 1001,0 0 0,0
12.11.2018 02:00:00 11,0 5,3 - - 18 10 - - SSW 1000,7 0 0,0
12.11.2018 01:00:00 10,9 5,8 - - 16 9 - - SW 1000,4 0 0,0
12.11.2018 00:00:00 10,7 5,3 - - 21 11 - - SW 1000,1 - 0,0
11.11.2018 23:00:00 10,7 5,8 - - 21 11 - - SW 1000,1 0 0,0
11.11.2018 22:00:00 10,3 5,9 - - 16 9 - - SW 999,5 0 0,0
11.11.2018 21:00:00 10,5 5,5 - - 18 10 - - SW 999,1 0 0,0
11.11.2018 20:00:00 10,1 5,2 - - 16 9 - - SSW 998,9 0 0,0
11.11.2018 19:00:00 9,6 5,3 - - 16 9 - - S 998,5 0 0,0
11.11.2018 18:00:00 9,9 4,9 - - 15 8 - - SSW 998,0 0 0,0
11.11.2018 17:00:00 9,9 4,6 - - 16 9 - - SSW 997,3 0 0,0
11.11.2018 16:00:00 10,0 5,0 - - 11 6 - - SSW 996,7 6 0,0
11.11.2018 15:00:00 10,3 5,6 - - 11 6 - - SW 996,1 24 0,0
11.11.2018 14:00:00 9,7 7,2 - - 13 7 - - WSW 995,8 18 0,2
11.11.2018 13:00:00 8,0 5,3 - - 18 10 - - SW 995,3 12 0,6
11.11.2018 12:00:00 9,6 6,8 - - 22 12 - - SW 994,0 18 1,6
11.11.2018 11:00:00 8,5 6,2 - - 18 10 - - SW 993,2 6 0,2
11.11.2018 10:00:00 7,6 6,1 - - 15 8 - - WSW 992,2 0 0,4
11.11.2018 09:00:00 7,0 5,5 9,7 10,2 9 5 - - SW 991,5 0 2,4
11.11.2018 08:00:00 8,2 6,2 - - 4 2 - - SSW 990,1 0 0,4
11.11.2018 07:00:00 7,8 6,0 - - 4 2 - - SE 989,6 0 0,2
11.11.2018 06:00:00 7,8 5,8 - - 4 2 - - E 989,6 0 0,0
11.11.2018 05:00:00 8,6 5,8 - - 5 3 - - SSE 989,9 0 0,0
11.11.2018 04:00:00 8,6 5,9 - - 13 7 - - SSE 990,1 0 0,0
11.11.2018 03:00:00 7,0 4,6 - - 5 3 - - ESE 990,2 0 0,0
11.11.2018 02:00:00 8,4 5,1 - - 9 5 - - SSE 990,5 0 0,0
11.11.2018 01:00:00 8,8 5,4 - - 11 6 - - S 990,4 0 0,0
11.11.2018 00:00:00 8,6 5,2 - - 11 6 - - S 990,5 - 0,0
10.11.2018 23:00:00 8,1 5,4 - - 11 6 - - S 990,5 0 0,0
10.11.2018 22:00:00 5,5 5,0 - - 2 1 - - NNE 990,9 0 0,0
10.11.2018 21:00:00 5,2 4,6 - - 4 2 - - ESE 990,9 0 0,0
10.11.2018 20:00:00 5,5 4,6 - - 5 3 - - E 990,8 0 0,2
10.11.2018 19:00:00 6,9 5,2 - - 4 2 - - SW 990,4 0 0,0
10.11.2018 18:00:00 7,4 5,9 - - 5 3 - - WSW 990,2 0 0,0
10.11.2018 17:00:00 8,4 6,5 - - 5 3 - - W 989,5 0 0,6
10.11.2018 16:00:00 9,7 7,1 - - 18 10 - - WSW 988,9 0 0,4
10.11.2018 15:00:00 10,5 6,4 - - 11 6 - - S 988,5 0 0,0
10.11.2018 14:00:00 10,1 6,7 - - 11 6 - - S 988,5 0 0,0
10.11.2018 13:00:00 10,0 6,9 - - 9 5 - - S 988,5 0 0,0
10.11.2018 12:00:00 9,5 7,1 - - 5 3 - - NW 989,0 6 1,4
10.11.2018 11:00:00 9,8 6,8 - - 8 4 - - S 989,5 0 0,4
10.11.2018 10:00:00 10,0 6,3 - - 9 5 - - S 989,6 0 0,0
10.11.2018 09:00:00 9,5 5,8 9,7 10,4 13 7 - - SSW 989,5 0 0,0
10.11.2018 08:00:00 8,0 6,1 - - 5 3 - - SW 989,3 0 0,0
10.11.2018 07:00:00 8,9 6,4 - - 18 10 - - WSW 988,9 0 0,2
10.11.2018 06:00:00 9,4 6,4 - - 15 8 - - WSW 988,3 0 0,0
10.11.2018 05:00:00 8,2 6,4 - - 8 4 - - SW 987,8 0 0,0
10.11.2018 04:00:00 8,0 5,6 - - 5 3 - - WSW 987,6 0 0,2
10.11.2018 03:00:00 8,5 7,1 - - 4 2 - - WSW 987,0 0 3,4
10.11.2018 02:00:00 10,3 7,6 - - 13 7 - - W 986,8 0 0,0
10.11.2018 01:00:00 9,8 7,5 - - 9 5 - - SW 986,2 0 0,0
10.11.2018 00:00:00 8,5 6,7 - - 2 1 - - S 986,2 - 0,0
09.11.2018 23:00:00 10,6 8,3 - - 9 5 - - WSW 986,1 0 0,6
09.11.2018 22:00:00 11,0 8,0 - - 9 5 - - WSW 985,6 0 0,8
09.11.2018 21:00:00 10,6 8,3 - - 11 6 - - S 985,7 0 1,4
09.11.2018 20:00:00 10,5 8,0 - - 22 12 48 26 SSE 985,6 0 4,8
09.11.2018 19:00:00 9,9 7,6 - - 16 9 - - SE 986,9 0 8,8
09.11.2018 18:00:00 9,8 7,3 - - 21 11 54 29 SE 987,6 0 6,4
09.11.2018 17:00:00 10,4 6,4 - - 18 10 - - SE 989,2 0 0,2
09.11.2018 16:00:00 10,3 5,9 - - 15 8 - - SE 991,4 0 0,0
09.11.2018 15:00:00 9,7 5,3 - - 11 6 - - SSE 993,4 0 0,0
09.11.2018 14:00:00 10,0 4,4 - - 13 7 - - SSW 995,1 0 0,2
09.11.2018 13:00:00 10,5 8,5 - - 9 5 - - SSE 996,7 0 0,6
09.11.2018 12:00:00 11,2 7,7 - - 15 8 - - SE 997,8 0 0,0
09.11.2018 11:00:00 10,8 7,3 - - 11 6 - - SE 999,2 0 0,0
09.11.2018 10:00:00 10,4 7,1 - - 11 6 - - SSE 1000,3 0 0,0
09.11.2018 09:00:00 10,2 7,0 9,9 10,4 5 3 - - E 1001,5 0 0,0
09.11.2018 08:00:00 9,6 6,6 - - 5 3 - - SSW 1002,4 0 0,0
09.11.2018 07:00:00 9,7 6,4 - - 8 4 - - ESE 1003,2 0 0,0
09.11.2018 06:00:00 9,5 6,3 - - 8 4 - - ESE 1003,8 0 0,0
09.11.2018 05:00:00 9,2 6,1 - - 9 5 - - SE 1004,3 0 0,0

tt = temperature
td = dewpoint
tt -20cm = temperature -20cm
tt -100cm = temperature -100cm
ff = wind speed
fx = gusts
dd = wind direction
ppp = reduced air pressure
sd = sunshine duration
rr = precipitation

Next stations